createdAt,value
2024-04-19T00:00:11.049Z,11.52
2024-04-19T00:02:37.725Z,12.17
2024-04-19T00:05:04.851Z,11.69
2024-04-19T00:07:31.491Z,12.25
2024-04-19T00:09:58.231Z,11.92
2024-04-19T00:12:24.863Z,11.85
2024-04-19T00:14:51.483Z,12.06
2024-04-19T00:17:18.175Z,11.42
2024-04-19T00:19:46.564Z,11.63
2024-04-19T00:22:13.210Z,10.96
2024-04-19T00:24:39.831Z,11.21
2024-04-19T00:27:07.125Z,11.33
2024-04-19T00:29:33.742Z,11.43
2024-04-19T00:32:00.540Z,11.65
2024-04-19T00:34:27.199Z,11.19
2024-04-19T00:36:53.869Z,11.61
2024-04-19T00:39:20.527Z,10.98
2024-04-19T00:41:47.132Z,11.93
2024-04-19T00:44:13.723Z,10.83
2024-04-19T00:46:42.581Z,11.55
2024-04-19T00:49:09.666Z,11.07
2024-04-19T00:51:36.438Z,11.60
2024-04-19T00:54:03.111Z,11.56
2024-04-19T00:56:31.973Z,10.82
2024-04-19T00:58:58.747Z,11.23
2024-04-19T01:01:26.198Z,10.97
2024-04-19T01:03:53.310Z,10.63
2024-04-19T01:06:20.066Z,11.23
2024-04-19T01:08:46.987Z,11.40
2024-04-19T01:11:13.825Z,10.67
2024-04-19T01:13:40.513Z,10.73
2024-04-19T01:16:07.299Z,11.14
2024-04-19T01:18:34.012Z,10.80
2024-04-19T01:21:01.773Z,11.81
2024-04-19T01:23:28.920Z,11.08
2024-04-19T01:25:55.626Z,11.36
2024-04-19T01:28:22.174Z,11.52
2024-04-19T01:30:49.138Z,12.32
2024-04-19T01:33:15.892Z,11.65
2024-04-19T01:35:42.504Z,12.35
2024-04-19T01:38:09.066Z,11.58
2024-04-19T01:40:35.701Z,12.40
2024-04-19T01:43:02.357Z,12.15
2024-04-19T01:45:28.872Z,12.80
2024-04-19T01:47:56.519Z,11.70
2024-04-19T01:50:23.142Z,12.00
2024-04-19T01:52:49.630Z,12.14
2024-04-19T01:55:17.893Z,12.27
2024-04-19T01:57:44.922Z,11.90
2024-04-19T02:00:12.060Z,12.16
2024-04-19T02:02:38.578Z,12.24
2024-04-19T02:05:05.345Z,12.34
2024-04-19T02:07:31.825Z,12.16
2024-04-19T02:09:58.361Z,11.39
2024-04-19T02:12:24.934Z,11.53
2024-04-19T02:14:52.376Z,12.01
2024-04-19T02:17:18.887Z,11.51
2024-04-19T02:19:45.400Z,11.30
2024-04-19T02:22:11.883Z,11.70
2024-04-19T02:24:38.494Z,12.00
2024-04-19T02:27:07.601Z,11.96
2024-04-19T02:29:52.804Z,12.37
2024-04-19T02:32:19.341Z,11.56
2024-04-19T02:34:48.075Z,11.72
2024-04-19T02:37:15.118Z,10.95
2024-04-19T02:39:41.861Z,10.38
2024-04-19T02:42:08.449Z,10.69
2024-04-19T02:44:34.936Z,10.23
2024-04-19T02:47:01.520Z,9.67
2024-04-19T02:49:28.046Z,9.89
2024-04-19T02:51:54.601Z,9.87
2024-04-19T02:54:21.100Z,9.85
2024-04-19T02:56:47.622Z,9.58
2024-04-19T02:59:14.121Z,9.57
2024-04-19T03:01:40.690Z,10.20
2024-04-19T03:04:07.414Z,9.94
2024-04-19T03:06:34.109Z,9.91
2024-04-19T03:09:03.371Z,10.11
2024-04-19T03:11:29.906Z,10.57
2024-04-19T03:13:58.899Z,10.18
2024-04-19T03:16:25.579Z,10.70
2024-04-19T03:18:52.094Z,10.41
2024-04-19T03:21:18.680Z,10.49
2024-04-19T03:23:45.179Z,10.39
2024-04-19T03:26:11.715Z,11.35
2024-04-19T03:28:38.189Z,11.21
2024-04-19T03:31:09.330Z,10.89
2024-04-19T03:33:36.012Z,10.11
2024-04-19T03:36:09.382Z,10.62
2024-04-19T03:38:36.056Z,10.43
2024-04-19T03:41:02.635Z,10.96
2024-04-19T03:43:41.755Z,10.41
2024-04-19T03:46:08.844Z,10.33
2024-04-19T03:48:35.436Z,11.04
2024-04-19T03:51:02.030Z,10.83
2024-04-19T03:53:28.514Z,10.90
2024-04-19T03:55:55.038Z,10.45
2024-04-19T03:58:21.541Z,11.02
2024-04-19T04:00:48.428Z,10.56
2024-04-19T04:03:15.136Z,10.38
2024-04-19T04:05:41.637Z,10.09
2024-04-19T04:08:08.236Z,10.36
2024-04-19T04:10:35.992Z,10.41
2024-04-19T04:13:02.611Z,10.38
2024-04-19T04:15:29.180Z,10.13
2024-04-19T04:17:55.773Z,10.61
2024-04-19T04:20:22.351Z,10.41
2024-04-19T04:22:48.856Z,10.27
2024-04-19T04:25:15.470Z,10.06
2024-04-19T04:27:42.166Z,9.85
2024-04-19T04:30:09.417Z,10.39
2024-04-19T04:32:35.981Z,10.82
2024-04-19T04:35:02.506Z,10.27
2024-04-19T04:37:30.229Z,9.60
2024-04-19T04:39:56.861Z,9.93
2024-04-19T04:42:23.460Z,10.39
2024-04-19T04:44:50.041Z,9.93
2024-04-19T04:47:16.696Z,9.73
2024-04-19T04:49:43.396Z,9.71
2024-04-19T04:52:09.950Z,9.30
2024-04-19T04:54:36.488Z,10.17
2024-04-19T04:57:08.505Z,10.19
2024-04-19T04:59:35.944Z,10.50
2024-04-19T05:02:03.082Z,10.21
2024-04-19T05:04:29.969Z,9.63
2024-04-19T05:06:56.540Z,8.62
2024-04-19T05:09:23.105Z,9.14
2024-04-19T05:11:49.620Z,9.22
2024-04-19T05:14:16.087Z,9.32
2024-04-19T05:16:42.659Z,9.68
2024-04-19T05:19:09.169Z,9.28
2024-04-19T05:21:35.740Z,9.09
2024-04-19T05:24:02.254Z,9.40
2024-04-19T05:26:28.756Z,9.83
2024-04-19T05:28:55.214Z,9.45
2024-04-19T05:31:21.703Z,9.66
2024-04-19T05:33:50.787Z,9.68
2024-04-19T05:36:17.301Z,9.84
2024-04-19T05:38:43.841Z,8.97
2024-04-19T05:41:10.362Z,9.41
2024-04-19T05:43:36.907Z,9.40
2024-04-19T05:46:03.652Z,9.85
2024-04-19T05:48:30.533Z,9.71
2024-04-19T05:50:57.048Z,8.98
2024-04-19T05:53:23.592Z,9.42
2024-04-19T05:55:50.091Z,10.23
2024-04-19T05:58:16.719Z,9.48
2024-04-19T06:00:43.347Z,9.61
2024-04-19T06:03:09.899Z,9.33
2024-04-19T06:05:36.598Z,9.28
2024-04-19T06:08:03.116Z,9.50
2024-04-19T06:10:30.315Z,9.78
2024-04-19T06:12:56.830Z,9.47
2024-04-19T06:15:23.370Z,9.70
2024-04-19T06:17:50.093Z,10.00
2024-04-19T06:20:16.746Z,9.31
2024-04-19T06:22:43.426Z,9.57
2024-04-19T06:25:10.301Z,9.29
2024-04-19T06:27:36.832Z,9.74
2024-04-19T06:30:03.565Z,10.08
2024-04-19T06:32:30.099Z,9.47
2024-04-19T06:34:57.089Z,9.80
2024-04-19T06:37:23.664Z,9.45
2024-04-19T06:39:58.985Z,9.07
2024-04-19T06:42:32.074Z,9.56
2024-04-19T06:44:58.676Z,10.03
2024-04-19T06:47:25.347Z,10.24
2024-04-19T06:49:51.899Z,9.46
2024-04-19T06:52:18.371Z,9.65
2024-04-19T06:54:44.912Z,10.02
2024-04-19T06:57:11.770Z,9.65
2024-04-19T06:59:41.080Z,9.68
2024-04-19T07:02:07.693Z,9.42
2024-04-19T07:04:34.302Z,9.48
2024-04-19T07:07:01.011Z,9.33
2024-04-19T07:09:27.630Z,9.63
2024-04-19T07:11:54.218Z,10.17
2024-04-19T07:14:21.772Z,9.80
2024-04-19T07:16:48.313Z,9.77
2024-04-19T07:19:14.875Z,9.68
2024-04-19T07:21:41.746Z,10.01
2024-04-19T07:24:08.553Z,10.06
2024-04-19T07:26:38.971Z,10.13
2024-04-19T07:29:06.471Z,10.71
2024-04-19T07:31:33.430Z,10.47
2024-04-19T07:33:59.932Z,10.92
2024-04-19T07:36:26.500Z,10.09
2024-04-19T07:38:53.650Z,10.53
2024-04-19T07:41:20.162Z,10.57
2024-04-19T07:43:52.872Z,10.22
2024-04-19T07:46:22.658Z,10.30
2024-04-19T07:48:49.464Z,10.41
2024-04-19T07:51:19.149Z,10.88
2024-04-19T07:53:45.710Z,10.68
2024-04-19T07:56:12.219Z,10.99
2024-04-19T07:58:38.723Z,11.05
2024-04-19T08:01:05.666Z,10.38
2024-04-19T08:03:32.486Z,10.53
2024-04-19T08:05:59.026Z,10.27
2024-04-19T08:08:25.593Z,10.60
2024-04-19T08:10:52.092Z,10.57
2024-04-19T08:13:18.661Z,10.76
2024-04-19T08:15:45.609Z,10.98
2024-04-19T08:18:12.234Z,10.86
2024-04-19T08:20:38.766Z,10.86
2024-04-19T08:23:05.340Z,11.46
2024-04-19T08:25:31.949Z,10.83
2024-04-19T08:27:58.505Z,10.68
2024-04-19T08:30:25.541Z,10.82
2024-04-19T08:32:52.191Z,11.02
2024-04-19T08:35:18.690Z,11.38
2024-04-19T08:37:45.190Z,10.97
2024-04-19T08:40:13.834Z,11.53
2024-04-19T08:42:40.638Z,11.12
2024-04-19T08:45:09.238Z,11.64
2024-04-19T08:47:36.987Z,12.06
2024-04-19T08:50:04.412Z,11.48
2024-04-19T08:52:50.561Z,12.25
2024-04-19T08:55:20.510Z,12.07
2024-04-19T08:57:47.497Z,11.95
2024-04-19T09:00:16.140Z,12.05
2024-04-19T09:02:44.452Z,12.31
2024-04-19T09:05:11.112Z,11.81
2024-04-19T09:07:38.080Z,12.40
2024-04-19T09:10:06.341Z,11.99
2024-04-19T09:12:34.721Z,12.53
2024-04-19T09:15:02.036Z,12.34
2024-04-19T09:17:29.460Z,12.63
2024-04-19T09:19:58.110Z,12.96
2024-04-19T09:22:24.852Z,11.67
2024-04-19T09:24:54.602Z,12.34
2024-04-19T09:27:25.248Z,12.31
2024-04-19T09:29:52.488Z,12.45
2024-04-19T09:32:22.852Z,12.34
2024-04-19T09:34:52.411Z,12.15
2024-04-19T09:37:18.946Z,13.21
2024-04-19T09:39:45.657Z,12.87
2024-04-19T09:42:12.343Z,12.32
2024-04-19T09:44:41.869Z,11.30
2024-04-19T09:47:11.241Z,12.66
2024-04-19T09:49:44.198Z,11.95
2024-04-19T09:52:20.158Z,12.52
2024-04-19T09:54:47.941Z,12.33
2024-04-19T09:57:18.210Z,12.50
2024-04-19T09:59:45.861Z,11.99
2024-04-19T10:02:20.775Z,12.78
2024-04-19T10:04:55.736Z,12.30
2024-04-19T10:07:22.716Z,12.48
2024-04-19T10:09:49.783Z,13.15
2024-04-19T10:12:19.538Z,12.84
2024-04-19T10:14:46.423Z,12.70
2024-04-19T10:17:13.169Z,12.68
2024-04-19T10:19:49.669Z,12.15
2024-04-19T10:22:22.470Z,11.79
2024-04-19T10:25:09.287Z,12.54
2024-04-19T10:27:35.988Z,13.27
2024-04-19T10:30:09.605Z,13.32
2024-04-19T10:32:40.330Z,13.30
2024-04-19T10:35:12.147Z,13.39
2024-04-19T10:37:38.653Z,13.83
2024-04-19T10:40:08.875Z,13.47
2024-04-19T10:42:35.483Z,13.61
2024-04-19T10:45:02.617Z,13.87
2024-04-19T10:47:29.161Z,12.57
2024-04-19T10:49:55.811Z,13.02
2024-04-19T10:52:23.915Z,13.21
2024-04-19T10:54:50.564Z,12.34
2024-04-19T10:57:17.175Z,12.65
2024-04-19T10:59:44.533Z,13.37
2024-04-19T11:02:11.674Z,12.88
2024-04-19T11:04:38.564Z,12.85
2024-04-19T11:07:05.228Z,12.66
2024-04-19T11:09:33.435Z,12.48
2024-04-19T11:12:00.397Z,12.73
2024-04-19T11:14:29.349Z,12.23
2024-04-19T11:16:55.883Z,12.36
2024-04-19T11:19:23.224Z,12.51
2024-04-19T11:21:50.504Z,12.28
2024-04-19T11:24:20.050Z,12.33
2024-04-19T11:26:47.767Z,12.20
2024-04-19T11:29:14.609Z,12.68
2024-04-19T11:31:41.332Z,12.46
2024-04-19T11:34:07.988Z,12.81
2024-04-19T11:36:36.047Z,12.32
2024-04-19T11:39:02.775Z,12.23
2024-04-19T11:41:29.376Z,12.19
2024-04-19T11:44:00.527Z,11.82
2024-04-19T11:46:29.713Z,11.94
2024-04-19T11:49:00.066Z,12.02
2024-04-19T11:51:27.097Z,12.08
2024-04-19T11:53:53.699Z,12.15
2024-04-19T11:56:20.179Z,12.04
2024-04-19T11:58:53.331Z,12.23
2024-04-19T12:01:20.252Z,12.06
2024-04-19T12:03:46.837Z,11.63
2024-04-19T12:06:13.455Z,12.82
2024-04-19T12:08:40.642Z,12.26
2024-04-19T12:11:07.314Z,12.80
2024-04-19T12:14:23.223Z,12.40
2024-04-19T12:16:38.163Z,12.41
2024-04-19T12:19:07.373Z,12.07
2024-04-19T12:21:34.600Z,12.40
2024-04-19T12:24:03.938Z,12.12
2024-04-19T12:26:32.562Z,11.79
2024-04-19T12:28:59.393Z,12.29
2024-04-19T12:31:26.078Z,11.80
2024-04-19T12:33:52.839Z,11.80
2024-04-19T12:36:19.556Z,11.37
2024-04-19T12:38:46.096Z,11.48
2024-04-19T12:41:12.633Z,11.18
2024-04-19T12:43:39.549Z,11.39
2024-04-19T12:46:06.140Z,11.28
2024-04-19T12:48:32.834Z,10.85
2024-04-19T12:50:59.422Z,10.78
2024-04-19T12:53:26.216Z,10.75
2024-04-19T12:55:52.981Z,10.57
2024-04-19T12:58:19.811Z,11.36
2024-04-19T13:00:49.393Z,11.06
2024-04-19T13:03:15.968Z,10.99
2024-04-19T13:05:42.702Z,11.41
2024-04-19T13:08:09.328Z,10.82
2024-04-19T13:10:39.821Z,10.63
2024-04-19T13:13:09.340Z,11.16
2024-04-19T13:15:35.903Z,10.78
2024-04-19T13:18:03.337Z,10.86
2024-04-19T13:20:30.916Z,11.00
2024-04-19T13:22:57.424Z,10.96
2024-04-19T13:25:23.942Z,11.24
2024-04-19T13:27:50.540Z,11.58
2024-04-19T13:30:17.152Z,12.85
2024-04-19T13:32:43.675Z,13.18
2024-04-19T13:35:10.197Z,13.97
2024-04-19T13:37:36.736Z,13.57
2024-04-19T13:40:03.339Z,13.56
2024-04-19T13:42:29.932Z,13.91
2024-04-19T13:44:56.496Z,13.18
2024-04-19T13:47:23.146Z,13.02
2024-04-19T13:49:49.700Z,13.76
2024-04-19T13:52:16.201Z,13.79
2024-04-19T13:54:42.954Z,12.89
2024-04-19T13:57:09.972Z,12.67
2024-04-19T13:59:36.570Z,12.13
2024-04-19T14:02:03.117Z,11.08
2024-04-19T14:04:29.759Z,11.41
2024-04-19T14:06:57.033Z,10.95
2024-04-19T14:09:24.023Z,11.33
2024-04-19T14:11:50.538Z,11.02
2024-04-19T14:14:17.149Z,10.71
2024-04-19T14:16:43.657Z,10.61
2024-04-19T14:19:10.675Z,11.25
2024-04-19T14:21:37.174Z,10.74
2024-04-19T14:24:03.731Z,11.23
2024-04-19T14:26:30.442Z,11.30
2024-04-19T14:28:56.923Z,11.73
2024-04-19T14:31:23.767Z,12.33
2024-04-19T14:33:50.358Z,12.26
2024-04-19T14:36:17.034Z,11.29
2024-04-19T14:38:43.514Z,12.09
2024-04-19T14:41:10.084Z,12.38
2024-04-19T14:43:41.225Z,11.84
2024-04-19T14:46:09.484Z,11.91
2024-04-19T14:48:36.374Z,11.65
2024-04-19T14:51:03.503Z,11.93
2024-04-19T14:53:30.016Z,12.08
2024-04-19T14:55:58.358Z,12.76
2024-04-19T14:58:24.884Z,12.40
2024-04-19T15:00:51.836Z,11.31
2024-04-19T15:03:18.515Z,11.41
2024-04-19T15:05:45.091Z,10.61
2024-04-19T15:08:11.630Z,10.59
2024-04-19T15:10:40.045Z,10.57
2024-04-19T15:13:06.884Z,10.19
2024-04-19T15:15:33.694Z,10.02
2024-04-19T15:18:00.530Z,10.60
2024-04-19T15:20:27.177Z,10.33
2024-04-19T15:22:58.370Z,11.40
2024-04-19T15:25:25.641Z,11.09
2024-04-19T15:27:52.177Z,11.90
2024-04-19T15:30:18.745Z,11.84
2024-04-19T15:32:47.512Z,11.30
2024-04-19T15:35:14.292Z,11.85
2024-04-19T15:37:41.152Z,11.87
2024-04-19T15:40:08.629Z,12.03
2024-04-19T15:42:35.431Z,11.91
2024-04-19T15:45:01.981Z,11.28
2024-04-19T15:47:28.567Z,11.53
2024-04-19T15:49:55.155Z,11.54
2024-04-19T15:52:24.507Z,11.80
2024-04-19T15:54:52.737Z,12.10
2024-04-19T15:57:19.791Z,12.04
2024-04-19T15:59:46.301Z,12.50
2024-04-19T16:02:13.990Z,12.95
2024-04-19T16:04:40.744Z,13.16
2024-04-19T16:07:07.448Z,12.99
2024-04-19T16:09:33.983Z,13.15
2024-04-19T16:12:01.128Z,12.40
2024-04-19T16:14:27.744Z,13.30
2024-04-19T16:16:54.237Z,12.65
2024-04-19T16:19:20.904Z,12.79
2024-04-19T16:21:47.470Z,11.46
2024-04-19T16:24:14.220Z,11.73
2024-04-19T16:26:40.784Z,12.22
2024-04-19T16:29:07.318Z,11.80
2024-04-19T16:31:33.837Z,12.18
2024-04-19T16:34:00.488Z,12.27
2024-04-19T16:36:27.169Z,12.48
2024-04-19T16:38:55.698Z,12.85
2024-04-19T16:41:22.617Z,12.30
2024-04-19T16:43:49.140Z,11.61
2024-04-19T16:46:15.706Z,12.50
2024-04-19T16:48:42.283Z,11.77
2024-04-19T16:51:08.869Z,12.19
2024-04-19T16:53:35.400Z,12.26
2024-04-19T16:56:04.395Z,12.65
2024-04-19T16:58:31.299Z,12.20
2024-04-19T17:00:57.974Z,12.16
2024-04-19T17:03:24.631Z,12.43
2024-04-19T17:05:51.186Z,12.11
2024-04-19T17:08:17.714Z,11.77
2024-04-19T17:10:44.320Z,12.31
2024-04-19T17:13:10.891Z,11.53
2024-04-19T17:15:37.512Z,11.94
2024-04-19T17:18:04.871Z,12.01
2024-04-19T17:20:31.693Z,12.40
2024-04-19T17:22:58.261Z,12.24
2024-04-19T17:25:24.914Z,11.99
2024-04-19T17:27:51.586Z,12.02
2024-04-19T17:30:22.913Z,11.81
2024-04-19T17:32:49.617Z,11.71
2024-04-19T17:35:16.302Z,11.58
2024-04-19T17:37:44.419Z,11.82
2024-04-19T17:40:11.213Z,11.51
2024-04-19T17:42:38.087Z,11.83
2024-04-19T17:45:04.919Z,11.35
2024-04-19T17:47:32.126Z,11.62
2024-04-19T17:49:58.878Z,11.54
2024-04-19T17:52:25.384Z,11.39
2024-04-19T17:54:51.962Z,11.62
2024-04-19T17:57:18.524Z,11.90
2024-04-19T17:59:45.010Z,11.43
2024-04-19T18:02:12.556Z,11.37
2024-04-19T18:04:40.768Z,11.12
2024-04-19T18:07:07.500Z,10.49
2024-04-19T18:09:34.140Z,10.26
2024-04-19T18:12:00.631Z,10.23
2024-04-19T18:14:27.184Z,11.02
2024-04-19T18:16:56.436Z,10.67
2024-04-19T18:19:26.661Z,10.97
2024-04-19T18:21:53.686Z,10.38
2024-04-19T18:24:24.437Z,10.56
2024-04-19T18:26:50.983Z,10.75
2024-04-19T18:29:17.520Z,10.42
2024-04-19T18:31:44.104Z,10.50
2024-04-19T18:34:16.851Z,10.38
2024-04-19T18:36:45.887Z,10.41
2024-04-19T18:39:13.062Z,11.01
2024-04-19T18:41:40.171Z,10.72
2024-04-19T18:44:06.840Z,10.69
2024-04-19T18:46:33.433Z,10.82
2024-04-19T18:49:00.201Z,10.28
2024-04-19T18:51:27.283Z,10.64
2024-04-19T18:53:57.682Z,10.08
2024-04-19T18:56:24.176Z,10.58
2024-04-19T18:58:50.693Z,10.90
2024-04-19T19:01:19.650Z,10.79
2024-04-19T19:03:47.847Z,11.43
2024-04-19T19:06:15.411Z,11.87
2024-04-19T19:08:42.156Z,11.77
2024-04-19T19:11:13.707Z,11.41
2024-04-19T19:13:42.907Z,11.70
2024-04-19T19:16:10.029Z,11.10
2024-04-19T19:18:36.647Z,11.48
2024-04-19T19:21:03.387Z,10.40
2024-04-19T19:23:31.325Z,9.74
2024-04-19T19:25:59.716Z,9.87
2024-04-19T19:28:28.037Z,9.28
2024-04-19T19:30:57.606Z,9.31
2024-04-19T19:33:24.643Z,9.19
2024-04-19T19:35:57.783Z,9.52
2024-04-19T19:38:24.594Z,9.18
2024-04-19T19:40:51.137Z,9.02
2024-04-19T19:43:20.929Z,8.92
2024-04-19T19:45:58.621Z,9.30
2024-04-19T19:48:28.309Z,8.84
2024-04-19T19:50:59.885Z,9.50
2024-04-19T19:53:27.477Z,9.23
2024-04-19T19:55:54.381Z,9.33
2024-04-19T19:58:21.232Z,9.47
2024-04-19T20:01:09.498Z,9.64
2024-04-19T20:03:55.029Z,9.41
2024-04-19T20:06:22.490Z,9.69
2024-04-19T20:08:49.037Z,9.39
2024-04-19T20:11:15.699Z,9.14
2024-04-19T20:13:42.286Z,9.52
2024-04-19T20:16:09.312Z,10.19
2024-04-19T20:18:39.200Z,9.99
2024-04-19T20:21:05.783Z,9.32
2024-04-19T20:23:32.474Z,9.44
2024-04-19T20:25:59.162Z,9.13
2024-04-19T20:28:25.645Z,8.99
2024-04-19T20:30:52.221Z,9.46
2024-04-19T20:33:18.835Z,9.06
2024-04-19T20:35:45.692Z,8.52
2024-04-19T20:38:12.302Z,8.80
2024-04-19T20:40:39.062Z,8.83
2024-04-19T20:43:15.156Z,9.07
2024-04-19T20:45:46.925Z,8.55
2024-04-19T20:48:13.653Z,8.34
2024-04-19T20:50:40.297Z,8.55
2024-04-19T20:53:06.827Z,8.63
2024-04-19T20:55:37.812Z,9.06
2024-04-19T20:58:04.615Z,8.62
2024-04-19T21:00:33.049Z,9.08
2024-04-19T21:03:01.281Z,9.25
2024-04-19T21:05:27.818Z,9.02
2024-04-19T21:07:54.556Z,8.76
2024-04-19T21:10:21.793Z,9.02
2024-04-19T21:12:48.351Z,9.51
2024-04-19T21:15:17.116Z,9.51
2024-04-19T21:17:44.542Z,9.10
2024-04-19T21:20:11.331Z,9.33
2024-04-19T21:22:37.825Z,9.21
2024-04-19T21:25:05.614Z,8.74
2024-04-19T21:27:33.193Z,8.96
2024-04-19T21:30:00.144Z,8.62
2024-04-19T21:32:26.803Z,8.74
2024-04-19T21:34:53.358Z,9.00
2024-04-19T21:37:20.541Z,9.23
2024-04-19T21:39:47.153Z,8.81
2024-04-19T21:42:15.894Z,8.64
2024-04-19T21:44:42.648Z,9.14
2024-04-19T21:47:09.413Z,8.71
2024-04-19T21:49:35.974Z,8.57
2024-04-19T21:52:04.129Z,8.72
2024-04-19T21:54:30.843Z,9.66
2024-04-19T21:56:57.357Z,9.47
2024-04-19T21:59:23.859Z,9.27
2024-04-19T22:01:50.387Z,8.67
2024-04-19T22:04:16.927Z,8.77
2024-04-19T22:06:43.469Z,8.95
2024-04-19T22:09:10.097Z,9.34
2024-04-19T22:11:36.576Z,8.86
2024-04-19T22:14:03.073Z,9.10
2024-04-19T22:16:29.563Z,8.60
2024-04-19T22:18:56.184Z,9.16
2024-04-19T22:21:22.715Z,9.48
2024-04-19T22:23:49.538Z,8.98
2024-04-19T22:26:16.102Z,9.47
2024-04-19T22:28:42.764Z,8.84
2024-04-19T22:31:11.126Z,9.13
2024-04-19T22:33:37.716Z,8.93
2024-04-19T22:36:10.221Z,9.69
2024-04-19T22:38:37.521Z,9.28
2024-04-19T22:41:04.452Z,9.62
2024-04-19T22:43:33.586Z,9.53
2024-04-19T22:46:05.592Z,9.17
2024-04-19T22:48:33.292Z,9.66
2024-04-19T22:50:59.908Z,9.63
2024-04-19T22:53:26.418Z,10.11
2024-04-19T22:55:55.158Z,10.13
2024-04-19T22:58:21.859Z,10.06
2024-04-19T23:00:48.527Z,10.21
2024-04-19T23:03:15.444Z,9.29
2024-04-19T23:05:42.021Z,8.99
2024-04-19T23:08:10.781Z,9.11
2024-04-19T23:10:37.687Z,9.44
2024-04-19T23:13:06.209Z,9.56
2024-04-19T23:15:34.341Z,9.03
2024-04-19T23:18:01.071Z,9.17
2024-04-19T23:20:27.667Z,9.87
2024-04-19T23:22:54.865Z,8.89
2024-04-19T23:25:21.343Z,9.86
2024-04-19T23:27:48.983Z,9.24
2024-04-19T23:30:15.555Z,9.76
2024-04-19T23:32:42.166Z,9.91
2024-04-19T23:35:08.699Z,10.00
2024-04-19T23:37:37.336Z,9.47
2024-04-19T23:40:04.429Z,9.49
2024-04-19T23:42:31.061Z,9.43
2024-04-19T23:44:57.609Z,9.63
2024-04-19T23:47:26.097Z,9.82
2024-04-19T23:49:52.690Z,9.34
2024-04-19T23:52:19.227Z,9.13
2024-04-19T23:54:46.591Z,10.01
2024-04-19T23:57:13.247Z,9.87
2024-04-19T23:59:39.774Z,9.91
